Time;durP1;ratioP1;P1;durP2;ratioP2;P2;SDS_P1;SDS_P2;PMS_P1;PMS_P2;Temp;Humidity;BMP_temperature;BMP_pressure;BME280_temperature;BME280_humidity;BME280_pressure;Samples;Min_cycle;Max_cycle;Signal;HPM_P1;HPM_P2
2023/07/09 00:01:55;;;;;;;0.55;0.55;;;;;;;27.58;43.54;101146.72;5225859;28;20098;-84
2023/07/09 00:04:46;;;;;;;0.85;0.73;;;;;;;27.54;43.53;101148.84;5223912;28;20044;-84
2023/07/09 00:07:37;;;;;;;0.55;0.55;;;;;;;27.49;43.82;101143.88;5227204;28;20028;-84
2023/07/09 00:10:28;;;;;;;2.70;0.52;;;;;;;27.47;43.94;101151.25;5215477;28;20036;-84
2023/07/09 00:13:21;;;;;;;0.95;0.95;;;;;;;27.46;44.14;101148.72;5214042;28;20021;-85
2023/07/09 00:16:16;;;;;;;0.32;0.32;;;;;;;27.41;44.19;101148.25;5229069;28;20103;-84
2023/07/09 00:19:13;;;;;;;1.13;1.08;;;;;;;27.36;44.21;101145.97;5224536;28;20498;-84
2023/07/09 00:22:16;;;;;;;1.48;1.38;;;;;;;27.32;44.63;101153.47;5230868;28;20032;-84
2023/07/09 00:25:13;;;;;;;1.08;0.73;;;;;;;27.29;44.53;101148.41;5210819;28;20135;-85
2023/07/09 00:28:04;;;;;;;0.50;0.50;;;;;;;27.23;44.47;101151.63;5231411;28;20495;-84
2023/07/09 00:30:55;;;;;;;1.15;1.10;;;;;;;27.11;46.16;101139.28;5211870;28;20090;-84
2023/07/09 00:33:47;;;;;;;1.75;1.02;;;;;;;27.18;45.25;101148.50;5219846;28;20522;-85
2023/07/09 00:36:37;;;;;;;0.40;0.40;;;;;;;27.17;44.96;101152.19;5228185;28;20701;-85
2023/07/09 00:39:28;;;;;;;0.77;0.77;;;;;;;27.12;44.80;101143.69;5211569;28;20039;-85
2023/07/09 00:42:23;;;;;;;0.85;0.40;;;;;;;27.05;44.83;101146.09;5221949;28;20021;-86
2023/07/09 00:45:20;;;;;;;1.55;1.45;;;;;;;27.04;44.77;101146.22;5231616;28;20032;-85
2023/07/09 00:48:16;;;;;;;2.33;1.08;;;;;;;26.99;45.30;101150.19;5231424;28;20024;-85
2023/07/09 00:51:17;;;;;;;1.17;1.08;;;;;;;26.93;45.22;101150.75;5222887;28;20652;-86
2023/07/09 00:54:48;;;;;;;0.47;0.47;;;;;;;26.82;45.57;101149.03;5237334;28;20033;-86
2023/07/09 00:57:41;;;;;;;3.03;1.55;;;;;;;26.82;45.29;101149.03;5227986;28;20087;-85
2023/07/09 01:00:42;;;;;;;2.15;1.17;;;;;;;26.83;46.15;101150.72;5206806;28;20044;-85
2023/07/09 01:04:01;;;;;;;0.65;0.65;;;;;;;26.81;45.51;101152.69;5217149;28;20456;-85
2023/07/09 01:06:54;;;;;;;0.40;0.40;;;;;;;26.80;46.27;101151.00;5206682;28;20224;-84
2023/07/09 01:09:45;;;;;;;0.65;0.65;;;;;;;26.78;46.04;101152.13;5221903;28;20037;-85
2023/07/09 01:12:36;;;;;;;0.55;0.55;;;;;;;26.73;46.03;101154.34;5239177;28;20066;-85
2023/07/09 01:15:27;;;;;;;0.68;0.68;;;;;;;26.69;46.20;101146.53;5241625;28;20029;-86
2023/07/09 01:18:18;;;;;;;0.52;0.47;;;;;;;26.66;46.42;101151.34;5213286;28;20032;-85
2023/07/09 01:21:16;;;;;;;1.85;1.30;;;;;;;26.58;46.16;101145.78;5213732;28;20025;-85
2023/07/09 01:24:35;;;;;;;0.90;0.90;;;;;;;26.54;46.23;101161.38;5240263;28;20032;-85
2023/07/09 01:27:37;;;;;;;1.15;1.15;;;;;;;26.48;46.27;101161.91;5220224;28;20078;-85
2023/07/09 01:30:36;;;;;;;0.88;0.88;;;;;;;26.43;46.79;101161.44;5229711;28;20119;-85
2023/07/09 01:33:26;;;;;;;0.47;0.47;;;;;;;26.40;46.52;101157.19;5206320;28;20040;-85
2023/07/09 01:36:23;;;;;;;1.55;0.82;;;;;;;26.37;46.56;101163.69;5230272;28;20166;-86
2023/07/09 01:39:14;;;;;;;0.80;0.80;;;;;;;26.34;46.64;101166.66;5225275;28;20033;-85
2023/07/09 01:42:07;;;;;;;1.48;0.98;;;;;;;26.28;46.64;101161.81;5219489;28;20116;-85
2023/07/09 01:44:59;;;;;;;1.58;1.30;;;;;;;26.24;46.89;101161.22;5237993;28;20029;-86
2023/07/09 01:47:49;;;;;;;0.77;0.77;;;;;;;26.21;47.03;101161.47;5212047;28;20025;-85
2023/07/09 01:50:42;;;;;;;0.75;0.75;;;;;;;26.18;47.26;101161.75;5244285;28;20036;-86
2023/07/09 01:53:35;;;;;;;;;;;;;;;26.19;47.58;101162.59;5211887;28;20040;-85
2023/07/09 01:56:27;;;;;;;1.15;1.10;;;;;;;26.16;47.50;101155.66;5234237;28;19912;-85
2023/07/09 01:59:20;;;;;;;0.93;0.70;;;;;;;26.15;47.81;101153.13;5211181;28;20033;-86
2023/07/09 02:02:18;;;;;;;0.68;0.68;;;;;;;26.04;47.84;101149.47;5200138;28;20398;-85
2023/07/09 02:05:12;;;;;;;0.95;0.95;;;;;;;26.00;47.49;101158.78;5208620;28;20163;-84
2023/07/09 02:08:04;;;;;;;7.63;1.15;;;;;;;25.99;47.45;101158.91;5224205;28;20021;-86
2023/07/09 02:10:54;;;;;;;1.08;0.93;;;;;;;25.97;47.49;101166.25;5225801;28;20090;-85
2023/07/09 02:13:45;;;;;;;3.42;1.38;;;;;;;25.88;48.27;101154.47;5233896;28;20041;-87
2023/07/09 02:16:36;;;;;;;0.85;0.85;;;;;;;25.88;48.00;101159.84;5238378;28;20033;-86
2023/07/09 02:19:29;;;;;;;1.45;0.80;;;;;;;25.85;47.93;101157.41;5215865;28;20694;-85
2023/07/09 02:22:20;;;;;;;0.77;0.75;;;;;;;25.81;48.06;101159.50;5213216;28;20308;-85
2023/07/09 02:25:11;;;;;;;1.08;1.05;;;;;;;25.77;47.90;101161.59;5208650;28;20743;-85
2023/07/09 02:28:02;;;;;;;0.63;0.57;;;;;;;25.73;48.01;101157.50;5221338;28;20663;-85
2023/07/09 02:30:52;;;;;;;7.60;1.00;;;;;;;25.63;48.48;101158.38;5216744;28;20033;-85
2023/07/09 02:33:43;;;;;;;1.52;1.40;;;;;;;25.63;48.48;101161.06;5229878;28;20044;-87
2023/07/09 02:36:34;;;;;;;0.65;0.65;;;;;;;25.65;48.41;101165.34;5249166;28;20019;-88
2023/07/09 02:39:26;;;;;;;0.63;0.63;;;;;;;25.66;49.17;101167.03;5229863;28;20040;-86
2023/07/09 02:42:18;;;;;;;1.02;0.70;;;;;;;25.59;48.36;101169.41;5245453;28;20039;-87
2023/07/09 02:45:10;;;;;;;0.82;0.82;;;;;;;25.55;48.58;101159.03;5227911;28;20025;-87
2023/07/09 02:48:01;;;;;;;0.52;0.52;;;;;;;25.53;48.39;101163.66;5258532;28;20024;-87
2023/07/09 02:50:51;;;;;;;0.80;0.80;;;;;;;25.48;48.39;101163.22;5228792;28;20037;-88
2023/07/09 02:53:42;;;;;;;0.90;0.80;;;;;;;25.43;48.59;101161.75;5225903;28;20036;-86
2023/07/09 02:56:33;;;;;;;0.60;0.60;;;;;;;25.41;48.39;101158.34;5246205;28;20025;-87
2023/07/09 02:59:26;;;;;;;0.80;0.80;;;;;;;25.37;48.87;101162.25;5238529;28;20036;-86
2023/07/09 03:02:17;;;;;;;0.73;0.70;;;;;;;25.35;48.72;101161.50;5212227;28;20024;-84
2023/07/09 03:05:10;;;;;;;0.73;0.73;;;;;;;25.29;49.01;101170.91;5219839;28;20066;-84
2023/07/09 03:08:01;;;;;;;2.28;1.20;;;;;;;25.26;49.15;101170.31;5207980;28;20653;-84
2023/07/09 03:10:52;;;;;;;2.85;0.77;;;;;;;25.22;48.60;101171.56;5202688;28;20048;-85
2023/07/09 03:13:43;;;;;;;0.60;0.60;;;;;;;25.12;49.08;101191.13;5236659;28;20048;-86
2023/07/09 03:16:34;;;;;;;0.63;0.63;;;;;;;25.09;48.95;101191.34;5254585;28;20021;-84
2023/07/09 03:19:25;;;;;;;0.77;0.77;;;;;;;25.09;49.34;101185.97;5222934;28;20575;-84
2023/07/09 03:22:16;;;;;;;2.13;1.67;;;;;;;25.09;49.45;101185.97;5236702;28;20036;-85
2023/07/09 03:25:07;;;;;;;2.25;0.50;;;;;;;25.08;49.55;101189.66;5203738;28;20033;-85
2023/07/09 03:27:58;;;;;;;2.08;1.10;;;;;;;25.05;49.42;101192.59;5205764;28;20159;-84
2023/07/09 03:30:52;;;;;;;5.15;1.40;;;;;;;25.03;49.78;101191.88;5206424;28;20127;-86
2023/07/09 03:33:43;;;;;;;0.65;0.65;;;;;;;25.03;50.02;101191.88;5217745;28;20502;-84
2023/07/09 03:36:35;;;;;;;0.65;0.65;;;;;;;24.98;49.85;101200.28;5220065;28;20033;-85
2023/07/09 03:39:25;;;;;;;0.77;0.77;;;;;;;24.98;50.16;101202.97;5205204;28;20040;-84
2023/07/09 03:42:16;;;;;;;1.05;1.02;;;;;;;24.94;50.35;101187.22;5214273;28;20075;-84
2023/07/09 03:45:07;;;;;;;1.98;1.13;;;;;;;24.94;50.36;101201.53;5202971;28;20035;-86
2023/07/09 03:47:58;;;;;;;0.77;0.75;;;;;;;24.90;50.27;101196.53;5205691;28;20028;-85
2023/07/09 03:50:49;;;;;;;4.53;1.05;;;;;;;24.85;50.44;101198.72;5219836;28;20655;-85
2023/07/09 03:53:40;;;;;;;1.27;1.17;;;;;;;24.81;50.40;101193.59;5204537;28;20053;-85
2023/07/09 03:56:31;;;;;;;1.77;0.90;;;;;;;24.82;50.81;101195.31;5229337;28;20146;-85
2023/07/09 03:59:22;;;;;;;1.58;1.48;;;;;;;24.79;50.79;101194.72;5199993;28;20033;-84
2023/07/09 04:02:13;;;;;;;0.73;0.73;;;;;;;24.77;50.48;101199.34;5206101;28;20033;-85
2023/07/09 04:05:04;;;;;;;0.63;0.63;;;;;;;24.74;50.94;101200.44;5214166;28;20044;-84
2023/07/09 04:07:55;;;;;;;3.40;2.40;;;;;;;24.73;51.12;101206.78;5216568;28;20032;-85
2023/07/09 04:10:46;;;;;;;1.05;0.90;;;;;;;24.73;51.05;101209.47;5223368;28;20108;-85
2023/07/09 04:13:38;;;;;;;1.02;1.02;;;;;;;24.72;51.16;101215.81;5227276;28;20050;-84
2023/07/09 04:16:28;;;;;;;1.67;1.30;;;;;;;24.69;51.15;101210.66;5210226;28;20070;-85
2023/07/09 04:19:20;;;;;;;0.30;0.30;;;;;;;24.68;51.57;101214.31;5225027;28;20083;-85
2023/07/09 04:22:11;;;;;;;0.95;0.88;;;;;;;24.66;51.26;101213.59;5238264;28;20036;-85
2023/07/09 04:25:04;;;;;;;0.85;0.82;;;;;;;24.64;51.61;101207.47;5201317;28;20045;-84
2023/07/09 04:27:55;;;;;;;;;;;;;;;24.67;51.87;101202.75;5201455;28;20573;-84
2023/07/09 04:30:51;;;;;;;2.10;1.90;;;;;;;24.66;51.48;101205.53;5197471;28;19977;-85
2023/07/09 04:33:43;;;;;;;0.80;0.80;;;;;;;24.62;51.48;101204.06;5220395;28;20570;-84
2023/07/09 04:36:33;;;;;;;0.45;0.40;;;;;;;24.64;51.66;101207.47;5206422;28;20112;-84
2023/07/09 04:39:24;;;;;;;1.17;1.08;;;;;;;24.65;52.06;101201.16;5225433;28;20037;-84
2023/07/09 04:42:16;;;;;;;3.60;1.15;;;;;;;24.59;51.63;101199.78;5224175;28;20039;-85
2023/07/09 04:45:09;;;;;;;2.38;2.17;;;;;;;24.58;51.55;101200.75;5207050;28;20037;-85
2023/07/09 04:48:00;;;;;;;0.60;0.60;;;;;;;24.57;51.34;101200.91;5219577;28;20038;-84
2023/07/09 04:50:52;;;;;;;1.48;1.10;;;;;;;24.58;51.80;101207.97;5217237;28;20572;-85
2023/07/09 04:53:42;;;;;;;1.33;1.23;;;;;;;24.56;51.65;101201.88;5201743;28;20114;-85
2023/07/09 04:56:33;;;;;;;0.80;0.80;;;;;;;24.55;51.88;101192.09;5212634;28;20043;-85
2023/07/09 04:59:24;;;;;;;1.50;1.40;;;;;;;24.56;51.83;101191.13;5222597;28;20025;-86
2023/07/09 05:02:15;;;;;;;1.77;1.67;;;;;;;24.56;52.00;101199.19;5199215;28;20107;-86
2023/07/09 05:05:07;;;;;;;6.25;1.13;;;;;;;24.54;52.00;101195.75;5210889;28;20616;-85
2023/07/09 05:07:57;;;;;;;4.20;1.13;;;;;;;24.57;52.30;101203.56;5214116;28;20024;-84
2023/07/09 05:10:52;;;;;;;1.05;0.73;;;;;;;24.56;51.86;101201.88;5203780;28;20033;-85
2023/07/09 05:13:43;;;;;;;2.17;1.70;;;;;;;24.57;51.87;101198.22;5222398;28;20400;-85
2023/07/09 05:16:34;;;;;;;3.67;2.20;;;;;;;24.58;52.00;101191.88;5219469;28;20048;-85
2023/07/09 05:19:25;;;;;;;7.82;3.38;;;;;;;24.56;52.22;101191.97;5222451;23;20431;-81
2023/07/09 05:22:16;;;;;;;0.95;0.95;;;;;;;24.54;52.18;101203.81;5205444;28;20038;-81
2023/07/09 05:25:07;;;;;;;5.20;2.28;;;;;;;24.54;52.55;101198.44;5203696;28;20042;-80
2023/07/09 05:27:58;;;;;;;1.95;1.42;;;;;;;24.57;52.06;101192.84;5200843;28;20392;-80
2023/07/09 05:30:49;;;;;;;1.45;1.08;;;;;;;24.51;53.10;101199.53;5188304;28;20492;-81
2023/07/09 05:33:40;;;;;;;1.88;1.77;;;;;;;24.57;51.86;101201.72;5185683;28;20600;-81
2023/07/09 05:36:31;;;;;;;0.80;0.80;;;;;;;24.58;51.88;101195.41;5189718;28;20168;-82
2023/07/09 05:39:22;;;;;;;1.90;1.77;;;;;;;24.55;52.18;101192.09;5190638;28;20031;-82
2023/07/09 05:42:13;;;;;;;5.80;1.85;;;;;;;24.58;52.09;101198.09;5197988;28;20485;-82
2023/07/09 05:45:04;;;;;;;0.98;0.88;;;;;;;24.61;51.98;101192.50;5193914;28;20046;-82
2023/07/09 05:47:55;;;;;;;1.80;1.65;;;;;;;24.62;51.95;101194.19;5134691;28;20257;-82
2023/07/09 05:50:48;;;;;;;0.73;0.60;;;;;;;24.61;53.26;101191.63;5194950;28;20438;-82
2023/07/09 05:53:40;;;;;;;0.85;0.85;;;;;;;24.66;52.18;101194.81;5197818;28;20551;-82
2023/07/09 05:56:30;;;;;;;1.38;1.05;;;;;;;24.70;52.43;101190.09;5188845;28;20034;-82
2023/07/09 05:59:21;;;;;;;2.33;0.88;;;;;;;24.71;52.26;101192.63;5132880;28;20027;-82
2023/07/09 06:02:15;;;;;;;1.27;1.17;;;;;;;24.69;52.58;101197.25;5191023;28;20396;-82
2023/07/09 06:05:09;;;;;;;2.45;1.50;;;;;;;24.74;52.48;101196.88;5187006;28;20443;-82
2023/07/09 06:08:00;;;;;;;1.35;1.25;;;;;;;24.75;52.34;101199.44;5147013;28;20035;-82
2023/07/09 06:11:09;;;;;;;2.75;1.13;;;;;;;24.82;52.12;101199.81;5192476;28;20076;-82
2023/07/09 06:14:00;;;;;;;1.33;0.55;;;;;;;24.75;55.70;101212.84;5187372;28;20047;-82
2023/07/09 06:16:50;;;;;;;0.82;0.82;;;;;;;24.82;53.47;101206.06;5187085;28;20184;-83
2023/07/09 06:19:41;;;;;;;0.40;0.40;;;;;;;24.88;52.99;101203.84;5201948;28;20133;-82
2023/07/09 06:22:32;;;;;;;2.60;1.58;;;;;;;24.80;53.93;101202.63;5201315;28;20019;-82
2023/07/09 06:25:23;;;;;;;0.60;0.60;;;;;;;24.86;53.63;101201.28;5197519;28;20049;-82
2023/07/09 06:28:15;;;;;;;1.73;0.82;;;;;;;24.83;57.45;101206.88;5141224;28;20037;-83
2023/07/09 06:31:06;;;;;;;2.20;1.88;;;;;;;24.83;56.74;101209.56;5138268;28;20031;-82
2023/07/09 06:33:57;;;;;;;1.70;1.13;;;;;;;24.95;55.41;101205.91;5200994;28;20235;-82
2023/07/09 06:36:48;;;;;;;0.60;0.60;;;;;;;25.04;54.05;101211.53;5204409;28;20042;-82
2023/07/09 06:39:39;;;;;;;0.82;0.80;;;;;;;25.05;54.57;101210.53;5190482;28;20588;-82
2023/07/09 06:42:33;;;;;;;0.73;0.65;;;;;;;25.09;54.60;101207.47;5184450;28;20046;-82
2023/07/09 06:45:24;;;;;;;3.40;0.77;;;;;;;25.13;54.59;101202.69;5185243;28;20125;-82
2023/07/09 06:48:15;;;;;;;1.05;0.98;;;;;;;25.18;55.28;101213.06;5193166;28;20041;-82
2023/07/09 06:51:06;;;;;;;0.57;0.57;;;;;;;25.22;55.14;101206.47;5191385;28;20034;-82
2023/07/09 06:53:57;;;;;;;2.38;1.63;;;;;;;25.19;58.17;101206.72;5205026;28;20416;-82
2023/07/09 06:56:48;;;;;;;0.60;0.60;;;;;;;25.27;54.92;101205.13;5200979;28;20033;-82
2023/07/09 06:59:39;;;;;;;0.52;0.52;;;;;;;25.24;57.18;101212.59;5130994;28;20058;-82
2023/07/09 07:02:30;;;;;;;1.15;0.85;;;;;;;25.36;55.21;101213.41;5199981;28;20060;-82
2023/07/09 07:05:21;;;;;;;0.88;0.88;;;;;;;25.37;57.15;101215.13;5189408;28;20513;-82
2023/07/09 07:08:15;;;;;;;0.93;0.90;;;;;;;25.44;56.97;101205.59;5188919;28;20030;-82
2023/07/09 07:11:06;;;;;;;2.08;1.85;;;;;;;25.48;56.26;101214.25;5178885;28;20523;-81
2023/07/09 07:13:58;;;;;;;17.58;1.63;;;;;;;25.56;54.68;101209.09;5133557;28;20096;-82
2023/07/09 07:16:49;;;;;;;0.75;0.75;;;;;;;25.54;57.17;101205.69;5190792;28;20027;-80
2023/07/09 07:19:40;;;;;;;0.82;0.82;;;;;;;25.65;54.98;101199.41;5184727;28;20039;-82
2023/07/09 07:22:31;;;;;;;4.20;0.90;;;;;;;25.70;56.54;101203.41;5212719;28;20038;-81
2023/07/09 07:25:22;;;;;;;2.17;1.42;;;;;;;25.75;55.80;101203.88;5184697;28;20496;-81
2023/07/09 07:28:13;;;;;;;1.30;1.17;;;;;;;25.89;54.67;101191.13;5190654;28;20047;-81
2023/07/09 07:31:08;;;;;;;0.90;0.80;;;;;;;25.84;56.13;101196.00;5201062;28;20121;-82
2023/07/09 07:33:59;;;;;;;0.55;0.55;;;;;;;25.89;55.31;101196.50;5198302;28;20138;-81
2023/07/09 07:36:50;;;;;;;0.68;0.63;;;;;;;25.94;55.80;101205.00;5135623;28;20034;-82
2023/07/09 07:39:42;;;;;;;4.03;0.68;;;;;;;25.91;56.64;101198.06;5137247;28;20047;-82
2023/07/09 07:42:32;;;;;;;0.93;0.82;;;;;;;25.99;55.82;101205.47;5202804;28;20506;-82
2023/07/09 07:45:23;;;;;;;0.68;0.68;;;;;;;26.06;56.26;101206.66;5188213;28;20062;-82
2023/07/09 07:48:14;;;;;;;0.85;0.85;;;;;;;26.08;55.74;101204.72;5185903;28;20333;-82
2023/07/09 07:51:05;;;;;;;0.70;0.70;;;;;;;26.17;56.56;101204.91;5183462;28;20062;-82
2023/07/09 07:53:56;;;;;;;0.98;0.85;;;;;;;26.28;54.74;101194.09;5177366;28;20100;-83
2023/07/09 07:56:47;;;;;;;0.50;0.50;;;;;;;26.31;56.36;101196.53;5195017;28;20068;-82
2023/07/09 07:59:39;;;;;;;6.93;0.73;;;;;;;26.30;56.12;101192.13;5132354;28;20124;-81
2023/07/09 08:02:29;;;;;;;0.93;0.93;;;;;;;26.36;55.97;101191.56;5134786;28;20398;-82
2023/07/09 08:05:20;;;;;;;4.95;0.93;;;;;;;26.48;55.61;101199.56;5185610;28;20046;-82
2023/07/09 08:08:11;;;;;;;1.15;0.98;;;;;;;26.54;55.35;101191.78;5183086;28;20046;-83
2023/07/09 08:11:07;;;;;;;2.58;1.67;;;;;;;26.59;54.18;101195.94;5201756;28;20027;-81
2023/07/09 08:13:58;;;;;;;0.43;0.43;;;;;;;26.60;56.42;101198.47;5195642;28;20047;-82
2023/07/09 08:16:49;;;;;;;0.50;0.50;;;;;;;26.67;56.30;101186.19;5186619;28;20440;-83
2023/07/09 08:19:51;;;;;;;0.52;0.52;;;;;;;26.66;54.13;101181.78;5184135;28;20047;-80
2023/07/09 08:22:43;;;;;;;1.85;1.15;;;;;;;26.70;55.10;101177.84;5188724;28;20035;-81
2023/07/09 08:25:34;;;;;;;1.47;0.93;;;;;;;26.79;55.63;101178.06;5196891;28;20561;-80
2023/07/09 08:28:25;;;;;;;0.40;0.40;;;;;;;26.88;54.47;101173.69;5189163;28;20073;-80
2023/07/09 08:31:16;;;;;;;0.35;0.35;;;;;;;26.96;54.16;101165.75;5194035;28;20059;-80
2023/07/09 08:34:08;;;;;;;0.90;0.90;;;;;;;26.92;54.05;101165.19;5198972;28;20042;-80
2023/07/09 08:36:58;;;;;;;0.40;0.40;;;;;;;26.98;54.14;101170.00;5194461;28;20522;-80
2023/07/09 08:39:49;;;;;;;0.70;0.70;;;;;;;27.00;53.81;101178.81;5130738;28;20051;-80
2023/07/09 08:42:45;;;;;;;0.77;0.77;;;;;;;27.10;55.28;101168.09;5194962;28;20376;-81
2023/07/09 08:46:05;;;;;;;0.70;0.70;;;;;;;27.06;53.27;101171.19;5186366;28;20047;-81
2023/07/09 08:48:58;;;;;;;0.35;0.35;;;;;;;27.12;53.78;101170.63;5188174;28;20038;-82
2023/07/09 08:51:50;;;;;;;0.40;0.40;;;;;;;27.18;53.22;101178.13;5193541;28;20122;-81
2023/07/09 08:54:45;;;;;;;0.32;0.32;;;;;;;27.25;53.17;101173.91;5195068;28;20043;-81
2023/07/09 08:57:42;;;;;;;0.85;0.75;;;;;;;27.30;52.47;101178.88;5211541;28;20039;-80
2023/07/09 09:00:41;;;;;;;0.30;0.30;;;;;;;27.37;53.37;101169.22;5194115;28;20130;-82
2023/07/09 09:03:37;;;;;;;1.13;0.95;;;;;;;27.36;52.66;101166.69;5133705;28;20042;-80
2023/07/09 09:06:30;;;;;;;0.38;0.38;;;;;;;27.56;52.75;101165.72;5196607;28;20064;-81
2023/07/09 09:09:37;;;;;;;0.60;0.60;;;;;;;27.66;52.61;101157.63;5192391;28;20036;-82
2023/07/09 09:12:36;;;;;;;0.80;0.80;;;;;;;27.76;52.52;101152.22;5132761;28;20023;-82
2023/07/09 09:15:27;;;;;;;1.00;0.90;;;;;;;27.78;52.18;101147.56;5190139;28;20050;-82
2023/07/09 09:18:20;;;;;;;0.43;0.43;;;;;;;27.83;52.84;101147.13;5193769;28;20053;-81
2023/07/09 09:21:32;;;;;;;1.83;0.68;;;;;;;27.92;51.68;101147.09;5195621;28;20023;-81
2023/07/09 09:24:31;;;;;;;0.50;0.50;;;;;;;27.93;52.45;101143.41;5187350;28;20247;-82
2023/07/09 09:27:22;;;;;;;0.60;0.60;;;;;;;28.01;51.71;101140.00;5190508;28;20216;-81
2023/07/09 09:30:16;;;;;;;1.42;1.08;;;;;;;28.05;51.50;101145.94;5170945;28;20553;-80
2023/07/09 09:33:09;;;;;;;0.38;0.38;;;;;;;28.11;51.82;101132.72;5199949;28;20597;-81
2023/07/09 09:36:04;;;;;;;1.85;1.30;;;;;;;28.21;51.78;101134.56;5185459;28;20039;-80
2023/07/09 09:38:55;;;;;;;3.75;1.42;;;;;;;28.26;51.17;101135.81;5198424;28;20085;-81
2023/07/09 09:41:46;;;;;;;0.30;0.30;;;;;;;28.25;51.81;101131.41;5187712;28;20080;-80
2023/07/09 09:44:44;;;;;;;0.85;0.85;;;;;;;28.38;50.74;101130.25;5184779;28;20066;-81
2023/07/09 09:47:34;;;;;;;1.20;1.10;;;;;;;28.53;50.24;101128.75;5216390;28;20031;-81
2023/07/09 09:50:30;;;;;;;4.10;1.17;;;;;;;28.70;50.49;101131.69;5190367;28;20058;-80
2023/07/09 09:53:23;;;;;;;0.52;0.45;;;;;;;28.49;51.12;101138.13;5194566;28;20066;-80
2023/07/09 09:56:36;;;;;;;0.30;0.30;;;;;;;28.73;50.24;101132.22;5217611;28;20033;-82
2023/07/09 09:59:32;;;;;;;4.47;1.65;;;;;;;28.77;49.92;101126.50;5188268;28;20205;-81
2023/07/09 10:02:25;;;;;;;0.77;0.77;;;;;;;28.93;49.55;101115.88;5202263;28;20027;-81
2023/07/09 10:05:16;;;;;;;0.82;0.80;;;;;;;28.96;50.05;101112.88;5198641;28;20185;-81
2023/07/09 10:08:15;;;;;;;0.40;0.40;;;;;;;29.34;50.41;101105.50;5193486;28;20089;-81
2023/07/09 10:11:19;;;;;;;0.77;0.32;;;;;;;29.32;50.67;101099.41;5191281;28;20031;-81
2023/07/09 10:14:36;;;;;;;0.70;0.70;;;;;;;29.56;48.08;101097.06;5203506;28;20645;-81
2023/07/09 10:17:47;;;;;;;1.13;0.68;;;;;;;29.55;48.18;101106.16;5184104;28;20038;-82
2023/07/09 10:20:47;;;;;;;0.52;0.52;;;;;;;29.90;46.49;101104.38;5202783;28;20058;-81
2023/07/09 10:24:03;;;;;;;0.80;0.80;;;;;;;29.97;46.62;101105.47;5199621;28;20053;-82
2023/07/09 10:27:04;;;;;;;19.92;17.88;;;;;;;30.09;46.17;101108.75;5207215;28;20030;-81
2023/07/09 10:30:20;;;;;;;83.03;59.95;;;;;;;30.29;46.76;101115.63;5186194;28;20062;-81
2023/07/09 10:33:18;;;;;;;72.97;56.97;;;;;;;30.19;46.87;101111.34;5199551;28;20035;-81
2023/07/09 10:36:33;;;;;;;51.10;40.47;;;;;;;30.54;47.47;101117.59;5190064;28;20023;-81
2023/07/09 10:39:32;;;;;;;40.40;33.75;;;;;;;30.62;44.50;101109.50;5184964;28;20636;-82
2023/07/09 10:42:35;;;;;;;7.85;3.72;;;;;;;30.48;45.33;101110.13;5180841;28;20194;-81
2023/07/09 10:45:34;;;;;;;1.45;1.30;;;;;;;30.57;44.80;101112.75;5182704;28;20058;-81
2023/07/09 10:48:48;;;;;;;5.72;4.38;;;;;;;30.71;43.57;101100.41;5186952;28;20083;-81
2023/07/09 10:51:43;;;;;;;1.95;1.60;;;;;;;30.65;44.26;101092.94;5184404;28;20097;-81
2023/07/09 10:54:52;;;;;;;2.90;0.57;;;;;;;31.11;43.13;101086.31;5134203;28;20046;-79
2023/07/09 10:57:57;;;;;;;0.68;0.68;;;;;;;30.92;43.74;101080.97;5133760;28;20038;-80
2023/07/09 11:00:48;;;;;;;0.25;0.25;;;;;;;30.92;43.40;101075.56;5137890;28;20045;-80
2023/07/09 11:03:48;;;;;;;0.50;0.50;;;;;;;31.17;43.13;101069.38;5200686;28;20047;-81
2023/07/09 11:06:44;;;;;;;0.80;0.80;;;;;;;31.30;42.78;101068.84;5192178;28;20045;-81
2023/07/09 11:09:39;;;;;;;0.98;0.80;;;;;;;31.19;43.04;101060.03;5203023;28;20088;-81
2023/07/09 11:12:39;;;;;;;3.30;1.50;;;;;;;31.21;41.88;101049.03;5181011;28;20558;-82
2023/07/09 11:15:37;;;;;;;0.30;0.30;;;;;;;31.37;43.11;101056.31;5203298;28;20034;-81
2023/07/09 11:21:20;;;;;;;1.55;1.45;;;;;;;31.38;41.52;101045.28;5263280;28;20052;-85
2023/07/09 11:24:30;;;;;;;1.40;1.08;;;;;;;31.51;42.30;101038.50;5229887;28;20040;-86
2023/07/09 11:27:25;;;;;;;0.95;0.63;;;;;;;31.67;41.75;101040.34;5248427;28;20246;-85
2023/07/09 11:30:28;;;;;;;0.40;0.40;;;;;;;31.52;42.09;101034.78;5240281;28;20039;-85
2023/07/09 11:33:29;;;;;;;1.25;1.15;;;;;;;31.99;40.24;101031.28;5256631;28;20367;-85
2023/07/09 11:36:26;;;;;;;0.30;0.30;;;;;;;31.95;39.27;101029.94;5243075;28;20028;-86
2023/07/09 11:39:22;;;;;;;0.60;0.60;;;;;;;31.88;40.87;101034.38;5255418;28;20055;-85
2023/07/09 11:43:00;;;;;;;0.30;0.30;;;;;;;32.18;40.76;101031.91;5237162;28;20130;-85
2023/07/09 11:45:51;;;;;;;0.22;0.22;;;;;;;32.07;41.03;101026.84;5230784;28;20044;-85
2023/07/09 11:48:43;;;;;;;1.75;0.60;;;;;;;32.09;41.18;101028.34;5247631;28;20036;-86
2023/07/09 11:51:42;;;;;;;1.13;0.95;;;;;;;32.03;41.13;101027.19;5233765;28;20030;-86
2023/07/09 11:54:35;;;;;;;0.55;0.55;;;;;;;32.23;40.57;101036.81;5244683;28;20062;-85
2023/07/09 11:57:28;;;;;;;0.50;0.50;;;;;;;32.35;39.58;101035.38;5253858;28;20419;-85
2023/07/09 12:00:19;;;;;;;0.50;0.50;;;;;;;32.80;36.68;101050.09;5231645;28;20036;-85
2023/07/09 12:03:20;;;;;;;0.30;0.30;;;;;;;32.71;36.23;101051.13;5236880;28;20055;-85
2023/07/09 12:06:13;;;;;;;7.43;0.40;;;;;;;32.92;35.32;101046.94;5243252;28;20114;-83
2023/07/09 12:09:05;;;;;;;0.55;0.55;;;;;;;33.18;32.30;101043.81;5242387;28;20185;-85
2023/07/09 12:11:55;;;;;;;3.08;1.40;;;;;;;33.26;31.70;101040.19;5237633;28;20032;-86
2023/07/09 12:14:46;;;;;;;0.40;0.40;;;;;;;33.11;33.18;101035.59;5227967;28;20080;-86
2023/07/09 12:17:37;;;;;;;1.02;0.77;;;;;;;33.37;31.64;101019.91;5229093;28;20057;-86
2023/07/09 12:20:34;;;;;;;0.30;0.30;;;;;;;33.43;31.21;101020.03;5233598;28;20040;-87
2023/07/09 12:23:30;;;;;;;0.90;0.90;;;;;;;33.34;33.85;101017.56;5231479;28;20048;-86
2023/07/09 12:26:21;;;;;;;0.60;0.60;;;;;;;33.23;35.22;101011.50;5263394;28;20039;-86
2023/07/09 12:29:12;;;;;;;1.45;0.88;;;;;;;33.43;34.61;101011.84;5250713;28;20521;-86
2023/07/09 12:32:11;;;;;;;0.60;0.60;;;;;;;33.37;34.58;100998.16;5265428;28;20035;-86
2023/07/09 12:35:02;;;;;;;0.63;0.63;;;;;;;33.59;33.82;101005.38;5244629;28;20090;-86
2023/07/09 12:37:52;;;;;;;0.20;0.20;;;;;;;33.72;31.22;100999.28;5249918;28;20024;-87
2023/07/09 12:40:43;;;;;;;1.23;0.98;;;;;;;33.64;30.73;100995.81;5287355;28;20032;-88
2023/07/09 12:43:34;;;;;;;0.55;0.45;;;;;;;33.64;30.75;100998.56;5275187;28;20036;-86
2023/07/09 12:46:25;;;;;;;1.77;0.38;;;;;;;33.51;32.21;101001.91;5267699;28;20132;-86
2023/07/09 12:49:27;;;;;;;0.65;0.57;;;;;;;33.46;32.42;100993.50;5247135;28;20594;-88
2023/07/09 12:52:21;;;;;;;0.98;0.65;;;;;;;33.36;33.08;100980.16;5236104;28;20042;-86
2023/07/09 12:55:25;;;;;;;0.25;0.25;;;;;;;33.24;31.95;100991.47;5228848;28;20439;-85
2023/07/09 12:58:25;;;;;;;0.28;0.28;;;;;;;33.18;32.82;100992.19;5250114;28;20412;-89
2023/07/09 13:01:17;;;;;;;3.40;0.98;;;;;;;33.21;32.98;100989.09;5245784;28;20030;-85
2023/07/09 13:04:12;;;;;;;6.43;1.08;;;;;;;33.13;33.87;100975.59;5245067;28;20089;-85
2023/07/09 13:07:04;;;;;;;0.47;0.47;;;;;;;33.05;33.28;100975.66;5238985;28;20249;-85
2023/07/09 13:09:56;;;;;;;0.57;0.57;;;;;;;33.02;33.53;100976.03;5238265;28;20066;-85
2023/07/09 13:12:50;;;;;;;0.35;0.35;;;;;;;32.90;33.40;100975.63;5232190;28;20246;-89
2023/07/09 13:15:43;;;;;;;0.45;0.32;;;;;;;32.77;34.08;100970.75;5247087;28;20051;-86
2023/07/09 13:18:36;;;;;;;5.18;2.25;;;;;;;32.72;34.68;100965.03;5231907;28;20233;-85
2023/07/09 13:21:27;;;;;;;0.30;0.30;;;;;;;32.70;34.58;100967.09;5251235;28;20032;-85
2023/07/09 13:24:24;;;;;;;0.85;0.50;;;;;;;32.64;35.71;100974.94;5246692;28;20036;-85
2023/07/09 13:27:15;;;;;;;1.95;1.45;;;;;;;32.48;36.23;100972.34;5247948;28;20458;-86
2023/07/09 13:30:08;;;;;;;0.55;0.35;;;;;;;32.32;36.56;100985.00;5247536;28;20047;-87
2023/07/09 13:32:58;;;;;;;0.75;0.57;;;;;;;31.86;36.04;100987.56;5231342;28;20062;-85